Copalis Crossing, Washington
Current Conditions -  °F | °C
As of 1:53 AM on Saturday 25 Oct 2014 (Local Time) from KHQM Reporting Station
Overcast Overcast  
Wind Chill: 51°   Ceiling: 4800
Heat Index: 51°   Visibility: 9mi
Dew Point: 50°   Wind: 16mph
Humidity: 96%   Direction: 60°ENE
Pressure: 29.6"   Gusts: 24mph
Location:  47.11°N, 124.07°W
Report Text: KHQM 250853Z AUTO 06014G21KT 9SM FEW009 OVC048 11/10 A2960 RMK AO2 SLP027 60008 T01060100 56035
Loading
Personal Weather Stations






























Interactive Weather Map
Tropical Storm Tracking
New forecast layout! Learn more

10-Day Weather Forecast

Advertisements
Track Severe Weather on mobile